This is the latest recevied weather packets stored in our database for station/object KL7LK-13. If no packets are shown the sender has not sent any weather packets the latest 10 day(s).
| Time | Temp. | Humidity | Pressure | Rain* | Wind** | Luminosity | Snow |
|---|---|---|---|---|---|---|---|
| 1777867364 | 10° C | 51% | 1038.6 hPa | - | - | 46 W/m² | - |
| 1777866124 | 10° C | 49% | 1038.7 hPa | - | - | 63 W/m² | - |
| 1777864905 | 10.56° C | 49% | 1038.8 hPa | - | - | 76 W/m² | - |
| 1777861894 | 10.56° C | 47% | 1039 hPa | - | - | 108 W/m² | - |
| 1777859537 | 11.11° C | 47% | 1039.1 hPa | - | - | 135 W/m² | - |
| 1777855321 | 11.67° C | 45% | 1039.5 hPa | - | - | 253 W/m² | - |
| 1777851725 | 10.56° C | 50% | 1039.8 hPa | - | - | 177 W/m² | - |
| 1777848150 | 11.11° C | 50% | 1040.2 hPa | - | - | 342 W/m² | - |
| 1777845155 | 11.11° C | 50% | 1040.5 hPa | - | - | 340 W/m² | - |
| 1777843419 | 11.67° C | 50% | 1040.3 hPa | - | - | 333 W/m² | - |
| 1777842799 | 11.67° C | 51% | 1040.4 hPa | - | - | 468 W/m² | - |
| 1777838585 | 10.56° C | 52% | 1040.1 hPa | - | - | 361 W/m² | - |
| 1777834988 | 10° C | 54% | 1040.3 hPa | - | - | 404 W/m² | - |
| 1777832013 | 8.89° C | 59% | 1040.2 hPa | - | - | 308 W/m² | - |
| 1777830154 | 7.22° C | 65% | 1040.3 hPa | - | - | 285 W/m² | - |
| 1777829535 | 7.22° C | 66% | 1040.3 hPa | - | - | 266 W/m² | - |
| 1777825343 | 4.44° C | 78% | 1040 hPa | - | - | 95 W/m² | - |
| 1777819991 | 2.22° C | 85% | 1040 hPa | - | - | 49 W/m² | - |
| 1777819372 | 2.22° C | 86% | 1039.7 hPa | - | - | 37 W/m² | - |
| 1777818133 | 1.67° C | 87% | 1039.4 hPa | - | - | 16 W/m² | - |
| 1777810328 | 1.67° C | 87% | 1038.9 hPa | - | - | 0 W/m² | - |
| 1777807353 | 2.22° C | 86% | 1038.8 hPa | - | - | 0 W/m² | - |
| 1777804379 | 2.22° C | 86% | 1038.6 hPa | - | - | 0 W/m² | - |
| 1777798947 | 2.22° C | 84% | 1037.6 hPa | - | - | 0 W/m² | - |
| 1777797068 | 2.78° C | 83% | 1037.5 hPa | - | - | 0 W/m² | - |
* Rain since midnight (hover to see other rain measurements)
** Current wind speed in m/s (hover to see current wind gust speed)